Time;durP1;ratioP1;P1;durP2;ratioP2;P2;SDS_P1;SDS_P2;PMS_P1;PMS_P2;Temp;Humidity;BMP_temperature;BMP_pressure;BME280_temperature;BME280_humidity;BME280_pressure;Samples;Min_cycle;Max_cycle;Signal;HPM_P1;HPM_P2
2021/04/19 00:02:04;;;;;;;0.55;0.55;;;6.90;99.90;;;;;;5109746;28;20206;-82
2021/04/19 00:04:31;;;;;;;0.60;0.60;;;6.90;99.90;;;;;;5109775;28;20254;-82
2021/04/19 00:06:57;;;;;;;0.50;0.50;;;6.90;99.90;;;;;;5109891;28;20205;-82
2021/04/19 00:09:23;;;;;;;0.52;0.52;;;6.80;99.90;;;;;;5109572;28;20247;-82
2021/04/19 00:11:49;;;;;;;0.60;0.60;;;6.90;99.90;;;;;;5109956;28;20221;-82
2021/04/19 00:14:16;;;;;;;0.60;0.60;;;6.90;99.90;;;;;;5109424;28;20255;-82
2021/04/19 00:16:42;;;;;;;0.60;0.60;;;6.80;99.90;;;;;;5109661;28;20695;-82
2021/04/19 00:19:08;;;;;;;0.50;0.50;;;6.80;99.90;;;;;;5109298;28;20455;-82
2021/04/19 00:21:36;;;;;;;0.50;0.50;;;6.80;99.90;;;;;;5109778;28;20202;-82
2021/04/19 00:24:02;;;;;;;0.60;0.60;;;6.80;99.90;;;;;;5111756;28;20216;-82
2021/04/19 00:26:28;;;;;;;0.50;0.50;;;6.90;99.90;;;;;;5113918;28;20218;-82
2021/04/19 00:28:54;;;;;;;0.50;0.50;;;6.80;99.90;;;;;;5113509;28;20198;-83
2021/04/19 00:31:20;;;;;;;0.50;0.50;;;6.80;99.90;;;;;;5113854;27;20202;-82
2021/04/19 00:33:46;;;;;;;0.60;0.60;;;6.90;99.90;;;;;;5113541;28;20206;-82
2021/04/19 00:36:12;;;;;;;0.50;0.50;;;6.90;99.90;;;;;;5113693;28;20206;-83
2021/04/19 00:38:39;;;;;;;0.50;0.50;;;6.80;99.90;;;;;;5113323;28;20218;-82
2021/04/19 00:41:07;;;;;;;0.50;0.50;;;6.80;99.90;;;;;;5113636;28;20206;-82
2021/04/19 00:43:34;;;;;;;0.60;0.60;;;6.80;99.90;;;;;;5113290;28;20198;-82
2021/04/19 00:46:04;;;;;;;0.60;0.60;;;6.80;99.90;;;;;;5113647;28;20203;-83
2021/04/19 00:48:31;;;;;;;0.50;0.50;;;6.90;99.90;;;;;;5113109;28;20206;-83
2021/04/19 00:50:57;;;;;;;0.60;0.60;;;6.90;99.90;;;;;;5113327;28;20657;-82
2021/04/19 00:53:25;;;;;;;0.57;0.57;;;6.90;99.90;;;;;;5112876;27;20252;-82
2021/04/19 00:55:54;;;;;;;0.50;0.50;;;6.70;99.90;;;;;;5113299;28;20217;-82
2021/04/19 00:58:25;;;;;;;0.60;0.60;;;6.70;99.90;;;;;;5113224;28;20203;-83
2021/04/19 01:00:52;;;;;;;0.60;0.60;;;6.80;99.90;;;;;;5112978;28;20241;-82
2021/04/19 01:03:18;;;;;;;0.60;0.60;;;6.80;99.90;;;;;;5113154;28;20202;-83
2021/04/19 01:05:45;;;;;;;0.50;0.50;;;6.70;99.90;;;;;;5113055;28;20427;-83
2021/04/19 01:08:11;;;;;;;0.57;0.57;;;6.70;99.90;;;;;;5112861;28;20206;-83
2021/04/19 01:10:38;;;;;;;0.50;0.50;;;6.70;99.90;;;;;;5112633;28;20198;-83
2021/04/19 01:13:06;;;;;;;0.50;0.50;;;6.60;99.90;;;;;;5112943;28;20622;-83
2021/04/19 01:15:33;;;;;;;0.50;0.50;;;6.70;99.90;;;;;;5112810;28;20209;-83
2021/04/19 01:18:00;;;;;;;0.60;0.60;;;6.70;99.90;;;;;;5113051;28;20206;-83
2021/04/19 01:20:28;;;;;;;0.50;0.50;;;6.70;99.90;;;;;;5112648;28;20229;-83
2021/04/19 01:22:55;;;;;;;0.50;0.50;;;6.70;99.90;;;;;;5112810;28;20209;-82
2021/04/19 01:25:25;;;;;;;0.50;0.50;;;6.60;99.90;;;;;;5112816;28;20194;-83
2021/04/19 01:27:53;;;;;;;0.60;0.60;;;6.60;99.90;;;;;;5112556;28;20423;-83
2021/04/19 01:30:22;;;;;;;0.60;0.60;;;7.20;99.90;;;;;;5113055;28;20255;-83
2021/04/19 01:32:48;;;;;;;0.60;0.60;;;6.60;99.90;;;;;;5112874;28;20202;-83
2021/04/19 01:35:15;;;;;;;0.60;0.60;;;6.60;99.90;;;;;;5111794;28;20201;-83
2021/04/19 01:37:42;;;;;;;0.50;0.50;;;6.60;99.90;;;;;;5112246;28;20207;-83
2021/04/19 01:40:12;;;;;;;0.60;0.60;;;6.60;99.90;;;;;;5112433;28;20611;-83
2021/04/19 01:42:38;;;;;;;0.50;0.50;;;6.60;99.90;;;;;;5112238;28;20202;-83
2021/04/19 01:45:05;;;;;;;0.50;0.50;;;6.70;99.90;;;;;;5112315;28;20585;-83
2021/04/19 01:47:34;;;;;;;0.60;0.60;;;6.70;99.90;;;;;;5112167;28;20202;-82
2021/04/19 01:50:06;;;;;;;0.50;0.50;;;6.70;99.90;;;;;;5112209;28;20198;-83
2021/04/19 01:52:33;;;;;;;0.50;0.50;;;6.70;99.90;;;;;;5112231;28;20255;-83
2021/04/19 01:54:59;;;;;;;0.50;0.50;;;6.70;99.90;;;;;;5111624;28;20252;-83
2021/04/19 01:57:26;;;;;;;0.60;0.60;;;6.70;99.90;;;;;;5112176;28;20675;-83
2021/04/19 01:59:53;;;;;;;0.50;0.50;;;6.60;99.90;;;;;;5111664;28;20229;-81
2021/04/19 02:02:22;;;;;;;0.50;0.50;;;6.60;99.90;;;;;;5112067;28;20206;-82
2021/04/19 02:05:01;;;;;;;0.50;0.50;;;6.50;99.90;;;;;;5111965;28;20198;-81
2021/04/19 02:07:38;;;;;;;0.60;0.60;;;6.50;99.90;;;;;;5112190;28;20456;-82
2021/04/19 02:10:12;;;;;;;0.60;0.60;;;6.50;99.90;;;;;;5111771;28;20198;-82
2021/04/19 02:12:44;;;;;;;0.60;0.60;;;6.50;99.90;;;;;;5112082;27;20210;-82
2021/04/19 02:15:16;;;;;;;0.50;0.50;;;6.90;99.90;;;;;;5111810;28;20206;-82
2021/04/19 02:17:48;;;;;;;0.60;0.60;;;6.50;99.90;;;;;;5111460;27;20206;-82
2021/04/19 02:20:23;;;;;;;0.50;0.50;;;6.50;99.90;;;;;;5111075;28;20592;-82
2021/04/19 02:22:53;;;;;;;0.50;0.50;;;6.50;99.90;;;;;;5111265;28;20206;-82
2021/04/19 02:25:29;;;;;;;0.50;0.50;;;6.40;99.90;;;;;;5111507;28;20637;-82
2021/04/19 02:28:00;;;;;;;0.60;0.60;;;6.40;99.90;;;;;;5111551;28;20242;-83
2021/04/19 02:30:33;;;;;;;0.60;0.60;;;6.50;99.90;;;;;;5111820;28;20299;-82
2021/04/19 02:33:02;;;;;;;0.60;0.60;;;6.50;99.90;;;;;;5111509;28;20203;-82
2021/04/19 02:35:32;;;;;;;0.50;0.50;;;6.50;99.90;;;;;;5111164;28;20198;-82
2021/04/19 02:37:59;;;;;;;0.55;0.55;;;6.40;99.90;;;;;;5111331;28;20206;-82
2021/04/19 02:40:26;;;;;;;0.57;0.57;;;6.40;99.90;;;;;;5111245;28;20226;-82
2021/04/19 02:42:56;;;;;;;0.60;0.60;;;6.40;99.90;;;;;;5111381;28;20210;-82
2021/04/19 02:45:24;;;;;;;0.60;0.60;;;6.40;99.90;;;;;;5111196;28;20664;-82
2021/04/19 02:47:51;;;;;;;0.60;0.60;;;6.30;99.90;;;;;;5110893;28;20267;-82
2021/04/19 02:50:20;;;;;;;0.60;0.60;;;6.20;99.90;;;;;;5111165;28;20202;-83
2021/04/19 02:52:47;;;;;;;0.60;0.60;;;6.30;99.90;;;;;;5110804;28;20555;-82
2021/04/19 02:55:15;;;;;;;0.57;0.57;;;6.40;99.90;;;;;;5110826;28;20253;-83
2021/04/19 02:57:47;;;;;;;0.60;0.60;;;6.40;99.90;;;;;;5110975;28;20640;-82
2021/04/19 03:00:15;;;;;;;0.50;0.50;;;6.40;99.90;;;;;;5110390;28;20276;-83
2021/04/19 03:02:43;;;;;;;0.55;0.55;;;6.40;99.90;;;;;;5110921;27;20202;-83
2021/04/19 03:05:13;;;;;;;0.50;0.50;;;6.50;99.90;;;;;;5110737;28;20225;-83
2021/04/19 03:07:43;;;;;;;0.50;0.50;;;6.50;99.90;;;;;;5110256;28;20198;-83
2021/04/19 03:10:12;;;;;;;0.50;0.50;;;6.50;99.90;;;;;;5110728;28;20206;-83
2021/04/19 03:12:42;;;;;;;0.55;0.55;;;6.50;99.90;;;;;;5110745;28;20202;-83
2021/04/19 03:15:13;;;;;;;0.50;0.50;;;6.50;99.90;;;;;;5110347;28;20522;-82
2021/04/19 03:17:39;;;;;;;0.60;0.60;;;6.30;99.90;;;;;;5110777;28;20251;-83
2021/04/19 03:20:10;;;;;;;0.60;0.60;;;6.30;99.90;;;;;;5110348;28;20222;-83
2021/04/19 03:22:41;;;;;;;0.50;0.50;;;6.30;99.90;;;;;;5110177;28;20267;-82
2021/04/19 03:25:10;;;;;;;0.50;0.50;;;6.20;99.90;;;;;;5110374;28;20235;-83
2021/04/19 03:27:38;;;;;;;0.50;0.50;;;6.10;99.90;;;;;;5110597;28;20198;-82
2021/04/19 03:30:06;;;;;;;0.60;0.60;;;6.00;99.90;;;;;;5110033;28;20604;-82
2021/04/19 03:32:36;;;;;;;0.50;0.50;;;6.00;99.90;;;;;;5110454;28;20206;-82
2021/04/19 03:35:06;;;;;;;0.60;0.60;;;6.00;99.90;;;;;;5110321;28;20210;-82
2021/04/19 03:37:35;;;;;;;0.52;0.52;;;6.00;99.90;;;;;;5109817;28;20206;-82
2021/04/19 03:40:05;;;;;;;0.60;0.60;;;6.10;99.90;;;;;;5110053;28;20229;-83
2021/04/19 03:42:34;;;;;;;0.55;0.55;;;6.00;99.90;;;;;;5110222;28;20259;-82
2021/04/19 03:45:03;;;;;;;0.50;0.50;;;6.10;99.90;;;;;;5109784;28;20203;-83
2021/04/19 03:47:30;;;;;;;0.50;0.50;;;6.10;99.90;;;;;;5110245;28;20232;-83
2021/04/19 03:50:00;;;;;;;0.50;0.50;;;6.00;99.90;;;;;;5109781;28;20202;-83
2021/04/19 03:52:46;;;;;;;0.57;0.57;;;5.90;99.90;;;;;;5110086;28;20242;-83
2021/04/19 03:55:15;;;;;;;0.60;0.60;;;6.00;99.90;;;;;;5109938;28;20747;-83
2021/04/19 03:57:44;;;;;;;0.60;0.60;;;6.00;99.90;;;;;;5109166;28;20623;-82
2021/04/19 04:00:14;;;;;;;0.60;0.60;;;6.10;99.90;;;;;;5109960;28;20226;-83
2021/04/19 04:02:43;;;;;;;0.50;0.50;;;6.10;99.90;;;;;;5109967;28;20612;-83
2021/04/19 04:05:12;;;;;;;0.55;0.55;;;6.10;99.90;;;;;;5109818;28;20210;-82
2021/04/19 04:07:40;;;;;;;0.50;0.50;;;6.10;99.90;;;;;;5109910;27;20231;-83
2021/04/19 04:10:08;;;;;;;0.60;0.60;;;6.00;99.90;;;;;;5109588;28;20194;-83
2021/04/19 04:12:36;;;;;;;0.50;0.50;;;6.10;99.90;;;;;;5110223;28;20202;-83
2021/04/19 04:15:05;;;;;;;0.57;0.57;;;6.10;99.90;;;;;;5109548;28;20202;-83
2021/04/19 04:17:31;;;;;;;0.60;0.60;;;6.10;99.90;;;;;;5109743;28;20213;-83
2021/04/19 04:19:58;;;;;;;0.60;0.60;;;6.10;99.90;;;;;;5109949;28;20222;-82
2021/04/19 04:22:24;;;;;;;0.52;0.52;;;6.00;99.90;;;;;;5109551;28;20254;-83
2021/04/19 04:24:51;;;;;;;0.57;0.57;;;6.00;99.90;;;;;;5109440;28;20205;-83
2021/04/19 04:27:17;;;;;;;0.60;0.60;;;6.00;99.90;;;;;;5109584;28;20225;-82
2021/04/19 04:29:45;;;;;;;0.60;0.60;;;5.80;99.90;;;;;;5109329;28;20202;-82
2021/04/19 04:32:11;;;;;;;0.60;0.60;;;5.90;99.90;;;;;;5109489;28;20202;-83
2021/04/19 04:34:38;;;;;;;0.60;0.60;;;5.80;99.90;;;;;;5109440;28;20202;-82
2021/04/19 04:37:05;;;;;;;0.50;0.50;;;5.80;99.90;;;;;;5109541;28;20583;-83
2021/04/19 04:39:31;;;;;;;0.50;0.50;;;5.70;99.90;;;;;;5108967;28;20214;-83
2021/04/19 04:41:57;;;;;;;0.50;0.50;;;5.80;99.90;;;;;;5109548;28;20580;-83
2021/04/19 04:44:27;;;;;;;0.50;0.50;;;5.80;99.90;;;;;;5108920;28;20684;-83
2021/04/19 04:47:05;;;;;;;0.50;0.50;;;5.70;99.90;;;;;;5109372;28;20243;-82
2021/04/19 04:49:38;;;;;;;0.50;0.50;;;5.60;99.90;;;;;;5109109;28;20271;-83
2021/04/19 04:52:07;;;;;;;0.50;0.50;;;5.70;99.90;;;;;;5109256;28;20210;-83
2021/04/19 04:54:37;;;;;;;0.50;0.50;;;5.80;99.90;;;;;;5109146;28;20234;-82
2021/04/19 04:57:05;;;;;;;0.50;0.50;;;5.70;99.90;;;;;;5108950;28;20202;-82
2021/04/19 04:59:31;;;;;;;0.50;0.50;;;5.70;99.90;;;;;;5109407;28;20230;-83
2021/04/19 05:01:59;;;;;;;0.50;0.50;;;5.70;99.90;;;;;;5109104;28;20298;-82
2021/04/19 05:04:28;;;;;;;0.50;0.50;;;5.70;99.90;;;;;;5109500;28;20202;-82
2021/04/19 05:06:55;;;;;;;0.50;0.50;;;5.80;99.90;;;;;;5108971;28;20590;-82
2021/04/19 05:09:21;;;;;;;0.50;0.50;;;5.80;99.90;;;;;;5110483;28;20198;-82
2021/04/19 05:11:48;;;;;;;0.55;0.55;;;5.90;99.90;;;;;;5113087;28;20202;-83
2021/04/19 05:14:14;;;;;;;0.50;0.50;;;5.90;99.90;;;;;;5113026;27;20209;-82
2021/04/19 05:16:40;;;;;;;0.50;0.50;;;5.90;99.90;;;;;;5112808;28;20205;-83
2021/04/19 05:19:08;;;;;;;0.60;0.60;;;5.80;99.90;;;;;;5113042;28;20218;-83
2021/04/19 05:21:35;;;;;;;0.50;0.50;;;5.70;99.90;;;;;;5112566;28;20668;-83
2021/04/19 05:24:01;;;;;;;0.50;0.50;;;5.70;99.90;;;;;;5112657;28;20206;-82
2021/04/19 05:26:28;;;;;;;0.60;0.60;;;5.70;99.90;;;;;;5112507;28;20564;-82
2021/04/19 05:28:54;;;;;;;0.50;0.50;;;5.80;99.90;;;;;;5112750;28;20209;-83
2021/04/19 05:31:21;;;;;;;0.50;0.50;;;5.80;99.90;;;;;;5112486;28;20199;-83
2021/04/19 05:33:48;;;;;;;0.50;0.50;;;5.80;99.90;;;;;;5112592;28;20213;-83
2021/04/19 05:36:16;;;;;;;0.50;0.50;;;5.70;99.90;;;;;;5112616;28;20205;-82
2021/04/19 05:38:43;;;;;;;0.50;0.50;;;5.60;99.90;;;;;;5112352;28;20202;-83
2021/04/19 05:41:11;;;;;;;0.52;0.52;;;5.70;99.90;;;;;;5112640;28;20206;-83
2021/04/19 05:43:40;;;;;;;0.60;0.60;;;5.60;99.90;;;;;;5112211;28;20501;-83
2021/04/19 05:46:07;;;;;;;0.50;0.50;;;5.60;99.90;;;;;;5112693;28;20202;-83
2021/04/19 05:48:33;;;;;;;0.60;0.60;;;5.50;99.90;;;;;;5111830;28;20676;-83
2021/04/19 05:51:03;;;;;;;0.50;0.50;;;5.70;99.90;;;;;;5112284;28;20576;-83
2021/04/19 05:53:31;;;;;;;0.60;0.60;;;5.70;99.90;;;;;;5111978;28;20202;-82
2021/04/19 05:55:58;;;;;;;0.50;0.50;;;5.80;99.90;;;;;;5111987;28;20206;-82
2021/04/19 05:58:28;;;;;;;0.50;0.50;;;5.90;99.90;;;;;;5112136;28;20248;-82
2021/04/19 06:00:58;;;;;;;0.50;0.50;;;5.80;99.90;;;;;;5111909;28;20505;-82
2021/04/19 06:03:29;;;;;;;0.60;0.60;;;5.90;99.90;;;;;;5111973;28;20202;-82
2021/04/19 06:06:02;;;;;;;0.50;0.50;;;5.90;99.90;;;;;;5112110;28;20217;-82
2021/04/19 06:08:38;;;;;;;0.50;0.50;;;5.90;99.90;;;;;;5111887;28;20198;-82
2021/04/19 06:11:13;;;;;;;0.50;0.50;;;5.90;99.90;;;;;;5111756;28;20660;-82
2021/04/19 06:13:42;;;;;;;0.50;0.50;;;5.90;99.90;;;;;;5111769;28;20221;-81
2021/04/19 06:16:09;;;;;;;0.50;0.50;;;5.90;99.90;;;;;;5111665;28;20198;-82
2021/04/19 06:18:36;;;;;;;0.60;0.60;;;5.90;99.90;;;;;;5111798;28;20210;-84
2021/04/19 06:21:03;;;;;;;0.60;0.60;;;6.00;99.90;;;;;;5110861;28;20222;-83
2021/04/19 06:23:30;;;;;;;0.60;0.60;;;5.90;99.90;;;;;;5111532;28;20206;-84
2021/04/19 06:25:56;;;;;;;0.60;0.60;;;5.90;99.90;;;;;;5111108;28;20229;-82
2021/04/19 06:28:24;;;;;;;0.52;0.52;;;6.60;99.90;;;;;;5111657;28;20206;-83
2021/04/19 06:30:52;;;;;;;0.50;0.50;;;5.90;99.90;;;;;;5111501;28;20791;-82
2021/04/19 06:33:20;;;;;;;0.50;0.50;;;5.90;99.90;;;;;;5111872;28;20558;-82
2021/04/19 06:35:48;;;;;;;0.50;0.50;;;6.00;99.90;;;;;;5111523;28;20206;-82
2021/04/19 06:38:15;;;;;;;0.52;0.52;;;6.00;99.90;;;;;;5111555;28;20208;-82
2021/04/19 06:40:58;;;;;;;0.50;0.50;;;6.10;99.90;;;;;;5100721;28;20214;-83
2021/04/19 06:43:25;;;;;;;0.50;0.50;;;6.20;99.90;;;;;;5091207;28;20290;-83
2021/04/19 06:45:51;;;;;;;0.50;0.50;;;6.00;99.90;;;;;;5090812;28;20224;-83
2021/04/19 06:48:19;;;;;;;0.50;0.50;;;6.10;99.90;;;;;;5091197;28;20230;-83
2021/04/19 06:50:48;;;;;;;0.50;0.50;;;6.50;99.90;;;;;;5091322;28;20199;-84
2021/04/19 06:53:14;;;;;;;0.60;0.60;;;6.40;99.90;;;;;;5090772;28;20202;-84
2021/04/19 06:55:41;;;;;;;0.50;0.50;;;6.30;99.90;;;;;;5091208;28;20712;-83
2021/04/19 06:58:13;;;;;;;0.60;0.60;;;6.30;99.90;;;;;;5091066;28;20569;-84
2021/04/19 07:00:42;;;;;;;0.57;0.57;;;6.20;99.90;;;;;;5090737;28;20248;-83
2021/04/19 07:03:08;;;;;;;0.50;0.50;;;6.10;99.90;;;;;;5091056;28;20695;-83
2021/04/19 07:05:36;;;;;;;0.50;0.50;;;6.20;99.90;;;;;;5090555;28;20207;-83
2021/04/19 07:08:15;;;;;;;0.50;0.50;;;6.00;99.90;;;;;;5091037;28;20252;-83
2021/04/19 07:10:44;;;;;;;0.55;0.55;;;5.90;99.90;;;;;;5090585;28;20255;-83
2021/04/19 07:13:16;;;;;;;0.50;0.50;;;5.90;99.90;;;;;;5090862;28;20673;-83
2021/04/19 07:15:46;;;;;;;0.50;0.50;;;6.10;99.90;;;;;;5091184;28;20233;-83
2021/04/19 07:18:13;;;;;;;0.50;0.50;;;6.10;99.90;;;;;;5090623;28;20203;-84
2021/04/19 07:20:46;;;;;;;0.50;0.50;;;6.10;99.90;;;;;;5090811;28;20639;-84
2021/04/19 07:23:13;;;;;;;0.50;0.50;;;6.20;99.90;;;;;;5090886;28;20202;-83
2021/04/19 07:25:39;;;;;;;0.50;0.50;;;6.30;99.90;;;;;;5090210;28;20234;-83
2021/04/19 07:28:06;;;;;;;0.50;0.50;;;6.50;99.90;;;;;;5090710;28;20202;-84
2021/04/19 07:30:34;;;;;;;0.60;0.60;;;6.50;99.90;;;;;;5088607;28;20199;-84
2021/04/19 07:33:00;;;;;;;0.60;0.60;;;6.60;99.90;;;;;;5089900;28;20240;-83
2021/04/19 07:35:28;;;;;;;0.50;0.50;;;6.60;99.90;;;;;;5090257;28;20207;-83
2021/04/19 07:37:57;;;;;;;0.50;0.50;;;6.80;99.90;;;;;;5090825;28;20656;-85
2021/04/19 07:40:34;;;;;;;0.50;0.50;;;6.80;99.90;;;;;;5069469;28;20217;-86
2021/04/19 07:43:16;;;;;;;0.57;0.57;;;6.60;99.90;;;;;;5103142;28;20206;-85
2021/04/19 07:45:59;;;;;;;0.50;0.50;;;6.90;99.90;;;;;;5104889;28;20277;-82
2021/04/19 07:48:31;;;;;;;0.50;0.50;;;6.50;99.90;;;;;;5103361;28;20222;-84
2021/04/19 07:50:59;;;;;;;0.60;0.60;;;6.60;99.90;;;;;;5108658;28;20209;-83
2021/04/19 07:53:27;;;;;;;0.50;0.50;;;6.50;99.90;;;;;;5107658;28;20207;-84
2021/04/19 07:55:55;;;;;;;0.50;0.50;;;6.60;99.90;;;;;;5108577;28;20678;-83
2021/04/19 07:58:23;;;;;;;0.60;0.60;;;6.60;99.90;;;;;;5106086;28;20292;-86
2021/04/19 08:00:51;;;;;;;0.60;0.60;;;6.60;99.90;;;;;;5089121;28;20222;-84
2021/04/19 08:03:19;;;;;;;0.50;0.50;;;6.30;99.90;;;;;;5091274;28;20263;-83
2021/04/19 08:05:48;;;;;;;0.50;0.50;;;6.20;99.90;;;;;;5098699;28;20259;-88
2021/04/19 08:08:16;;;;;;;0.60;0.60;;;6.30;99.90;;;;;;5109298;28;20202;-82
2021/04/19 08:10:44;;;;;;;0.50;0.50;;;6.40;99.90;;;;;;5108473;28;20229;-84
2021/04/19 08:13:12;;;;;;;0.50;0.50;;;6.50;99.90;;;;;;5109144;28;20698;-83
2021/04/19 08:16:15;;;;;;;0.60;0.60;;;6.60;99.90;;;;;;5103899;28;20202;-86
2021/04/19 08:18:42;;;;;;;0.60;0.60;;;6.60;99.90;;;;;;5098904;28;20202;-85
2021/04/19 08:21:08;;;;;;;0.50;0.50;;;6.90;99.90;;;;;;5106007;28;20250;-86
2021/04/19 08:23:42;;;;;;;0.50;0.50;;;6.90;99.90;;;;;;5109116;28;20284;-85
2021/04/19 08:26:08;;;;;;;0.60;0.60;;;6.80;99.90;;;;;;5108499;28;20235;-84
2021/04/19 08:28:42;;;;;;;0.50;0.50;;;6.80;99.90;;;;;;5109313;28;20194;-84
2021/04/19 08:31:09;;;;;;;0.60;0.60;;;6.70;99.90;;;;;;5107978;28;20197;-87
2021/04/19 08:33:36;;;;;;;0.50;0.50;;;6.70;99.90;;;;;;5110298;28;20566;-87
2021/04/19 08:36:05;;;;;;;0.60;0.60;;;6.90;99.90;;;;;;5110726;28;20308;-83
2021/04/19 08:38:33;;;;;;;0.50;0.50;;;6.70;99.90;;;;;;5109308;28;20679;-83
2021/04/19 08:41:00;;;;;;;0.50;0.50;;;6.80;99.90;;;;;;5107668;28;20260;-83
2021/04/19 08:43:29;;;;;;;0.50;0.50;;;6.90;99.90;;;;;;5107125;28;20220;-85
2021/04/19 08:45:57;;;;;;;0.50;0.50;;;7.10;99.90;;;;;;5110760;28;20251;-84
2021/04/19 08:48:24;;;;;;;0.50;0.50;;;6.90;99.90;;;;;;5113132;28;20229;-84
2021/04/19 08:50:51;;;;;;;0.50;0.50;;;6.90;99.90;;;;;;5112593;28;20564;-84
2021/04/19 08:53:20;;;;;;;0.60;0.60;;;7.00;99.90;;;;;;5113049;28;20282;-84
2021/04/19 08:55:47;;;;;;;0.50;0.50;;;7.60;99.90;;;;;;5112177;28;20207;-84
2021/04/19 08:58:15;;;;;;;0.55;0.55;;;7.40;99.90;;;;;;5112978;28;20194;-84
2021/04/19 09:00:43;;;;;;;0.50;0.50;;;7.60;99.90;;;;;;5112487;27;20857;-84
2021/04/19 09:03:11;;;;;;;0.60;0.60;;;7.50;99.90;;;;;;5108740;28;20210;-84
2021/04/19 09:05:37;;;;;;;0.60;0.60;;;7.50;99.90;;;;;;5111535;28;20655;-84
2021/04/19 09:08:05;;;;;;;0.50;0.50;;;7.60;99.90;;;;;;5111541;27;20667;-84
2021/04/19 09:10:48;;;;;;;0.60;0.60;;;7.50;99.90;;;;;;5110896;28;20194;-84
2021/04/19 09:13:28;;;;;;;0.57;0.57;;;7.70;99.90;;;;;;5111470;28;20206;-84
2021/04/19 09:15:55;;;;;;;0.50;0.50;;;7.80;99.90;;;;;;5111928;28;20311;-84
2021/04/19 09:18:22;;;;;;;0.50;0.50;;;7.80;99.90;;;;;;5111836;28;20579;-84
2021/04/19 09:20:51;;;;;;;0.50;0.50;;;7.80;99.90;;;;;;5111277;28;20621;-84
2021/04/19 09:23:23;;;;;;;0.60;0.60;;;7.80;99.90;;;;;;5111829;28;20213;-84
2021/04/19 09:25:51;;;;;;;0.50;0.50;;;7.70;99.90;;;;;;5110845;28;20613;-83
2021/04/19 09:28:54;;;;;;;0.60;0.60;;;7.60;99.90;;;;;;5111569;28;20210;-84
2021/04/19 09:31:57;;;;;;;0.60;0.60;;;7.70;99.90;;;;;;5111212;28;20635;-84
2021/04/19 09:34:37;;;;;;;0.60;0.60;;;7.90;99.90;;;;;;5107955;28;20199;-84
2021/04/19 09:37:04;;;;;;;0.60;0.60;;;8.00;99.90;;;;;;5091280;28;20335;-84
2021/04/19 09:39:53;;;;;;;0.60;0.60;;;8.30;99.90;;;;;;5090120;28;20219;-84
2021/04/19 09:43:03;;;;;;;0.60;0.60;;;8.50;99.90;;;;;;5090763;28;20230;-84
2021/04/19 09:48:41;;;;;;;0.50;0.50;;;8.60;99.90;;;;;;5145557;27;20512;-85
2021/04/19 09:51:13;;;;;;;0.50;0.50;;;8.60;99.90;;;;;;5146516;27;20681;-85
2021/04/19 09:53:40;;;;;;;0.50;0.50;;;8.80;99.90;;;;;;5147532;27;20428;-84
2021/04/19 09:56:06;;;;;;;0.55;0.55;;;8.70;99.90;;;;;;5146608;27;20205;-84
2021/04/19 09:58:36;;;;;;;0.50;0.50;;;8.80;99.90;;;;;;5147401;27;20284;-83
2021/04/19 10:01:05;;;;;;;0.50;0.50;;;8.80;99.90;;;;;;5147193;27;20201;-83
2021/04/19 10:03:33;;;;;;;0.60;0.60;;;8.80;99.90;;;;;;5147040;27;20209;-86
2021/04/19 10:06:03;;;;;;;0.60;0.60;;;8.90;99.90;;;;;;5148041;27;20264;-83
2021/04/19 10:08:30;;;;;;;0.55;0.55;;;8.90;99.90;;;;;;5147587;27;20233;-83
2021/04/19 10:10:59;;;;;;;0.50;0.50;;;9.00;99.90;;;;;;5146108;27;20209;-83
2021/04/19 10:13:30;;;;;;;0.60;0.60;;;8.90;99.90;;;;;;5147134;27;20662;-83
2021/04/19 10:16:07;;;;;;;0.60;0.60;;;9.00;99.90;;;;;;5147021;27;20212;-83
2021/04/19 10:18:35;;;;;;;0.50;0.50;;;9.30;99.90;;;;;;5147033;27;20242;-81
2021/04/19 10:21:03;;;;;;;0.50;0.50;;;9.40;99.90;;;;;;5144904;27;20193;-82
2021/04/19 10:23:39;;;;;;;0.50;0.50;;;9.40;99.90;;;;;;5145884;27;20224;-83
2021/04/19 10:26:05;;;;;;;0.52;0.52;;;9.10;99.90;;;;;;5145799;27;20580;-82
2021/04/19 10:28:35;;;;;;;0.50;0.50;;;9.10;99.90;;;;;;5147172;27;20201;-82
2021/04/19 10:31:12;;;;;;;0.57;0.57;;;9.30;99.90;;;;;;5146971;27;20567;-82
2021/04/19 10:33:40;;;;;;;0.55;0.55;;;9.20;99.90;;;;;;5146408;27;20257;-83
2021/04/19 10:36:15;;;;;;;0.50;0.50;;;8.90;99.90;;;;;;5146189;27;20261;-82
2021/04/19 10:38:42;;;;;;;0.50;0.50;;;9.10;99.90;;;;;;5144892;27;20197;-82
2021/04/19 10:41:09;;;;;;;0.60;0.60;;;9.20;99.90;;;;;;5136079;27;20246;-82
2021/04/19 10:43:35;;;;;;;0.60;0.60;;;9.50;99.90;;;;;;5145055;27;20200;-82
2021/04/19 10:46:02;;;;;;;0.60;0.60;;;9.80;99.90;;;;;;5132230;27;20712;-87
2021/04/19 10:48:32;;;;;;;0.50;0.50;;;9.90;99.90;;;;;;5146366;27;20197;-82
2021/04/19 10:51:16;;;;;;;0.50;0.50;;;9.90;99.90;;;;;;5145794;27;20205;-82
2021/04/19 10:53:42;;;;;;;0.50;0.50;;;9.80;99.90;;;;;;5145805;27;20201;-81
2021/04/19 10:56:09;;;;;;;0.52;0.52;;;9.80;99.90;;;;;;5145247;27;20208;-83
2021/04/19 10:58:37;;;;;;;0.60;0.60;;;9.80;99.90;;;;;;5138843;27;20194;-82
2021/04/19 11:01:04;;;;;;;0.60;0.60;;;9.70;99.90;;;;;;5130320;27;20624;-82
2021/04/19 11:03:35;;;;;;;0.60;0.60;;;9.70;99.90;;;;;;5132242;27;20206;-83
2021/04/19 11:06:02;;;;;;;0.50;0.50;;;9.40;99.90;;;;;;5129946;27;20202;-81
2021/04/19 11:08:47;;;;;;;0.57;0.57;;;9.50;99.90;;;;;;5132913;27;20278;-82
2021/04/19 11:11:30;;;;;;;0.50;0.50;;;9.60;99.90;;;;;;5132212;27;20296;-81
2021/04/19 11:14:09;;;;;;;0.60;0.60;;;9.90;99.90;;;;;;5132442;27;20209;-81
2021/04/19 11:16:35;;;;;;;0.60;0.60;;;10.20;99.90;;;;;;5132654;27;20204;-82
2021/04/19 11:19:02;;;;;;;0.60;0.60;;;10.30;99.90;;;;;;5132630;27;20200;-82
2021/04/19 11:21:32;;;;;;;0.60;0.60;;;10.40;99.90;;;;;;5126856;27;20214;-82
2021/04/19 11:24:10;;;;;;;0.60;0.60;;;10.50;99.90;;;;;;5126611;27;20270;-82
2021/04/19 11:26:37;;;;;;;0.60;0.60;;;10.40;99.90;;;;;;5131492;27;20225;-82
2021/04/19 11:29:04;;;;;;;0.50;0.50;;;10.60;99.90;;;;;;5132599;27;20256;-82
2021/04/19 11:31:46;;;;;;;0.60;0.60;;;10.70;99.90;;;;;;5132311;27;20210;-83
2021/04/19 11:34:14;;;;;;;0.50;0.50;;;10.90;99.90;;;;;;5131684;27;20206;-83
2021/04/19 11:36:42;;;;;;;0.60;0.60;;;11.10;99.90;;;;;;5132408;27;20209;-82
2021/04/19 11:39:14;;;;;;;0.60;0.60;;;10.60;99.90;;;;;;5132077;27;20225;-82
2021/04/19 11:41:40;;;;;;;0.60;0.60;;;11.10;99.90;;;;;;5131350;27;20671;-83
2021/04/19 11:44:07;;;;;;;0.60;0.60;;;11.70;99.90;;;;;;5120836;27;20206;-83
2021/04/19 11:46:39;;;;;;;0.60;0.60;;;12.10;99.90;;;;;;5131969;27;20237;-83
2021/04/19 11:49:05;;;;;;;0.60;0.60;;;12.40;99.90;;;;;;5131520;27;20659;-83
2021/04/19 11:51:31;;;;;;;0.60;0.60;;;12.50;99.90;;;;;;5124044;27;20841;-84
2021/04/19 11:53:57;;;;;;;0.60;0.60;;;12.50;99.90;;;;;;5124855;27;20210;-85
2021/04/19 11:56:24;;;;;;;0.60;0.60;;;12.10;99.90;;;;;;5130739;27;20250;-83
2021/04/19 11:58:51;;;;;;;0.60;0.60;;;11.90;99.90;;;;;;5126716;27;20225;-83
2021/04/19 12:01:19;;;;;;;0.60;0.60;;;11.80;99.90;;;;;;5119988;27;20213;-83
2021/04/19 12:03:46;;;;;;;0.60;0.60;;;11.40;99.90;;;;;;5128086;27;20210;-82
2021/04/19 12:06:13;;;;;;;0.60;0.60;;;11.70;99.90;;;;;;5124397;27;20203;-82
2021/04/19 12:09:01;;;;;;;0.60;0.60;;;12.00;99.90;;;;;;5119032;27;20197;-83
2021/04/19 12:11:28;;;;;;;0.60;0.60;;;12.90;99.90;;;;;;5106068;27;20206;-84
2021/04/19 12:13:59;;;;;;;0.50;0.50;;;12.30;99.90;;;;;;5103999;27;20202;-83
2021/04/19 12:16:26;;;;;;;0.60;0.60;;;12.80;99.90;;;;;;5092759;27;20270;-83
2021/04/19 12:18:52;;;;;;;0.60;0.60;;;13.50;99.90;;;;;;5129958;27;20198;-84
2021/04/19 12:21:19;;;;;;;0.60;0.60;;;13.20;99.90;;;;;;5127764;27;20511;-83
2021/04/19 12:23:45;;;;;;;0.60;0.60;;;13.10;99.90;;;;;;5127910;27;20213;-83
2021/04/19 12:26:11;;;;;;;0.50;0.50;;;12.50;99.90;;;;;;5123288;27;20292;-83
2021/04/19 12:28:38;;;;;;;0.60;0.60;;;13.10;99.90;;;;;;5099733;27;20213;-84
2021/04/19 12:31:06;;;;;;;0.60;0.60;;;13.90;99.90;;;;;;5100858;27;20209;-83
2021/04/19 12:33:33;;;;;;;0.57;0.57;;;13.90;99.90;;;;;;5102208;27;20611;-82
2021/04/19 12:35:59;;;;;;;0.50;0.50;;;13.50;99.90;;;;;;5105578;28;20214;-82
2021/04/19 12:38:26;;;;;;;0.60;0.60;;;13.70;99.90;;;;;;5104519;28;20202;-83
2021/04/19 12:40:53;;;;;;;0.60;0.60;;;13.70;99.90;;;;;;5099828;28;20195;-83
2021/04/19 12:43:19;;;;;;;0.60;0.60;;;13.80;99.90;;;;;;5087786;28;20250;-82
2021/04/19 12:45:46;;;;;;;0.60;0.60;;;14.20;99.90;;;;;;5100119;27;20729;-85
2021/04/19 12:48:13;;;;;;;0.60;0.60;;;14.70;99.90;;;;;;5097060;28;20281;-85
2021/04/19 12:50:40;;;;;;;0.50;0.50;;;14.10;99.90;;;;;;5095454;28;20585;-84
2021/04/19 12:53:07;;;;;;;0.60;0.60;;;13.90;99.90;;;;;;5095718;28;20202;-85
2021/04/19 12:55:34;;;;;;;0.60;0.60;;;13.80;99.90;;;;;;5100087;28;20656;-84
2021/04/19 12:58:00;;;;;;;0.60;0.60;;;14.50;99.90;;;;;;5094752;28;20202;-85
2021/04/19 13:00:27;;;;;;;0.60;0.60;;;14.30;99.90;;;;;;5099771;28;20194;-85
2021/04/19 13:02:54;;;;;;;0.60;0.60;;;14.10;99.90;;;;;;5096682;28;20203;-83
2021/04/19 13:05:24;;;;;;;0.60;0.60;;;14.20;99.90;;;;;;5094049;28;20203;-83
2021/04/19 13:07:50;;;;;;;0.60;0.60;;;13.80;99.90;;;;;;5096923;28;20207;-82
2021/04/19 13:10:18;;;;;;;0.60;0.60;;;14.60;99.90;;;;;;5093758;28;20225;-81